Time;durP1;ratioP1;P1;durP2;ratioP2;P2;SDS_P1;SDS_P2;PMS_P1;PMS_P2;Temp;Humidity;BMP_temperature;BMP_pressure;BME280_temperature;BME280_humidity;BME280_pressure;Samples;Min_cycle;Max_cycle;Signal;HPM_P1;HPM_P2
2022/12/26 00:00:35;;;;;;;28.63;15.07;;;8.80;99.90;;;;;;5113810;28;20089;-63
2022/12/26 00:03:01;;;;;;;31.00;15.65;;;8.90;99.90;;;;;;5114022;28;20032;-64
2022/12/26 00:05:27;;;;;;;31.67;15.52;;;8.90;99.90;;;;;;5094831;28;20051;-63
2022/12/26 00:07:52;;;;;;;30.25;15.73;;;8.70;99.90;;;;;;5113643;28;20477;-64
2022/12/26 00:10:18;;;;;;;31.60;15.75;;;8.70;99.90;;;;;;5113785;28;20084;-63
2022/12/26 00:12:44;;;;;;;29.52;15.02;;;8.70;99.90;;;;;;5095579;28;20035;-64
2022/12/26 00:15:09;;;;;;;33.80;15.90;;;8.90;99.90;;;;;;5113721;28;20482;-63
2022/12/26 00:17:35;;;;;;;28.55;15.02;;;8.70;99.90;;;;;;5113794;28;20397;-63
2022/12/26 00:20:01;;;;;;;30.25;14.77;;;8.80;99.90;;;;;;5113899;28;20047;-63
2022/12/26 00:22:26;;;;;;;29.15;15.32;;;8.90;99.90;;;;;;5078551;28;20045;-64
2022/12/26 00:24:52;;;;;;;32.95;16.70;;;8.70;99.90;;;;;;5113699;28;20051;-63
2022/12/26 00:27:18;;;;;;;28.20;14.80;;;8.90;99.90;;;;;;5113507;28;20054;-64
2022/12/26 00:29:43;;;;;;;31.42;15.18;;;8.90;99.90;;;;;;5113774;28;20042;-63
2022/12/26 00:32:09;;;;;;;31.00;14.57;;;8.90;99.90;;;;;;5113834;28;20119;-63
2022/12/26 00:34:34;;;;;;;33.80;16.50;;;8.90;99.90;;;;;;5113537;28;20400;-63
2022/12/26 00:37:00;;;;;;;33.92;16.20;;;8.80;99.90;;;;;;5113800;28;20035;-63
2022/12/26 00:39:25;;;;;;;32.13;16.00;;;8.90;99.90;;;;;;5113749;28;20035;-63
2022/12/26 00:41:51;;;;;;;28.65;15.20;;;8.70;99.90;;;;;;5117749;28;20383;-63
2022/12/26 00:44:17;;;;;;;36.75;16.17;;;8.80;99.90;;;;;;5117611;28;20039;-63
2022/12/26 00:46:42;;;;;;;32.10;15.75;;;8.70;99.90;;;;;;5117756;28;20044;-63
2022/12/26 00:49:08;;;;;;;27.63;13.85;;;8.80;99.90;;;;;;5098700;28;20475;-64
2022/12/26 00:51:34;;;;;;;27.98;15.40;;;8.70;99.90;;;;;;5117839;28;20053;-63
2022/12/26 00:53:59;;;;;;;32.30;16.35;;;8.80;99.90;;;;;;5117496;28;20122;-63
2022/12/26 00:56:25;;;;;;;33.90;16.58;;;8.70;99.90;;;;;;5117544;28;20039;-64
2022/12/26 00:58:51;;;;;;;37.15;16.25;;;8.70;99.90;;;;;;5117256;28;20126;-63
2022/12/26 01:01:21;;;;;;;42.13;16.90;;;8.70;99.90;;;;;;5098928;28;20092;-64
2022/12/26 01:03:48;;;;;;;43.72;18.30;;;8.70;99.90;;;;;;5117467;28;20035;-63
2022/12/26 01:06:14;;;;;;;38.25;16.33;;;8.70;99.90;;;;;;5117440;28;20043;-63
2022/12/26 01:08:40;;;;;;;36.30;16.30;;;8.70;99.90;;;;;;5117199;28;20054;-64
2022/12/26 01:11:09;;;;;;;37.80;16.23;;;8.80;99.90;;;;;;5117327;28;20078;-63
2022/12/26 01:13:36;;;;;;;41.67;16.70;;;8.80;99.90;;;;;;5117302;28;20397;-64
2022/12/26 01:16:03;;;;;;;35.97;16.52;;;8.70;99.90;;;;;;5116915;28;20047;-63
2022/12/26 01:18:28;;;;;;;41.67;18.15;;;8.90;99.90;;;;;;5098512;28;20096;-64
2022/12/26 01:21:03;;;;;;;43.53;17.58;;;8.60;99.90;;;;;;5117209;28;20122;-63
2022/12/26 01:23:29;;;;;;;41.20;18.02;;;8.90;99.90;;;;;;5098586;28;20078;-63
2022/12/26 01:25:55;;;;;;;38.85;16.77;;;8.80;99.90;;;;;;5117080;28;20092;-63
2022/12/26 01:28:20;;;;;;;43.45;18.35;;;8.80;99.90;;;;;;5117049;28;20035;-63
2022/12/26 01:30:46;;;;;;;42.78;18.02;;;8.70;99.90;;;;;;5097708;28;20489;-63
2022/12/26 01:33:12;;;;;;;38.85;17.58;;;8.80;99.90;;;;;;5098369;28;20043;-64
2022/12/26 01:35:37;;;;;;;37.88;17.75;;;8.70;99.90;;;;;;5116977;28;20386;-64
2022/12/26 01:38:03;;;;;;;39.67;17.60;;;8.90;99.90;;;;;;5116840;28;20473;-63
2022/12/26 01:40:29;;;;;;;39.28;17.38;;;8.90;99.90;;;;;;5098127;28;20042;-63
2022/12/26 01:42:54;;;;;;;44.80;17.30;;;8.70;99.90;;;;;;5116722;28;20385;-64
2022/12/26 01:45:29;;;;;;;37.95;16.92;;;8.70;99.90;;;;;;5116404;28;20042;-63
2022/12/26 01:48:11;;;;;;;50.97;18.58;;;8.70;99.90;;;;;;5116332;28;20485;-64
2022/12/26 01:50:42;;;;;;;39.40;18.25;;;8.60;99.90;;;;;;5116509;28;20040;-63
2022/12/26 01:53:16;;;;;;;47.08;18.40;;;8.80;99.90;;;;;;5115410;28;20043;-63
2022/12/26 01:55:47;;;;;;;49.03;19.27;;;8.90;99.90;;;;;;5116263;28;20051;-64
2022/12/26 01:58:22;;;;;;;42.83;18.92;;;8.70;99.90;;;;;;5116380;28;20036;-64
2022/12/26 02:00:48;;;;;;;48.33;19.55;;;8.70;99.90;;;;;;5116434;28;20075;-63
2022/12/26 02:05:58;;;;;;;43.95;17.75;;;8.60;99.90;;;;;;5116322;28;20048;-63
2022/12/26 02:08:29;;;;;;;43.45;18.23;;;8.70;99.90;;;;;;5116096;28;20075;-63
2022/12/26 02:11:18;;;;;;;35.17;15.73;;;8.70;99.90;;;;;;5115859;28;20538;-64
2022/12/26 02:13:44;;;;;;;35.42;15.85;;;8.90;99.90;;;;;;5115732;28;20122;-63
2022/12/26 02:16:13;;;;;;;39.30;16.73;;;8.70;99.90;;;;;;5115836;28;20478;-64
2022/12/26 02:18:39;;;;;;;33.25;15.95;;;8.90;99.90;;;;;;5115725;28;20043;-64
2022/12/26 02:21:14;;;;;;;34.45;16.15;;;8.60;99.90;;;;;;5115896;28;20047;-64
2022/12/26 02:24:17;;;;;;;33.15;15.05;;;8.90;99.90;;;;;;5115907;28;20047;-64
2022/12/26 02:27:20;;;;;;;35.50;15.98;;;8.60;99.90;;;;;;5115512;28;20047;-64
2022/12/26 02:30:07;;;;;;;29.20;14.18;;;8.90;99.90;;;;;;5115478;28;20500;-64
2022/12/26 02:32:39;;;;;;;32.83;14.48;;;8.60;99.90;;;;;;5115825;28;20055;-64
2022/12/26 02:35:16;;;;;;;29.63;14.48;;;8.60;99.90;;;;;;5115587;28;20100;-64
2022/12/26 02:38:03;;;;;;;34.45;15.18;;;8.80;99.90;;;;;;5115545;28;20044;-64
2022/12/26 02:40:41;;;;;;;26.73;13.90;;;8.80;99.90;;;;;;5115729;28;20039;-64
2022/12/26 02:43:22;;;;;;;30.70;14.13;;;8.60;99.90;;;;;;5115518;28;20036;-64
2022/12/26 03:13:09;;;;;;;29.70;14.77;;;8.80;99.90;;;;;;5115304;28;20070;-64
2022/12/26 03:15:09;;;;;;;26.40;16.92;;;8.90;99.90;;;;;;5114764;28;20043;-64
2022/12/26 03:17:39;;;;;;;27.65;16.73;;;8.70;99.90;;;;;;5114534;28;20052;-64
2022/12/26 03:20:10;;;;;;;27.00;16.90;;;8.70;99.90;;;;;;5115038;28;20039;-64
2022/12/26 03:22:39;;;;;;;29.85;18.38;;;8.90;99.90;;;;;;5114883;28;20042;-65
2022/12/26 03:27:54;;;;;;;30.88;18.27;;;8.80;99.90;;;;;;5114713;28;20048;-65
2022/12/26 03:34:15;;;;;;;36.90;20.27;;;9.00;99.90;;;;;;5114590;28;20035;-64
2022/12/26 03:35:50;;;;;;;37.13;21.05;;;8.80;99.90;;;;;;5114171;28;20072;-64
2022/12/26 03:38:19;;;;;;;36.38;20.92;;;8.80;99.90;;;;;;5114546;28;20031;-64
2022/12/26 04:19:54;;;;;;;37.92;20.55;;;9.20;99.90;;;;;;5113611;28;20079;-64
2022/12/26 04:45:09;;;;;;;37.25;21.45;;;9.10;99.90;;;;;;5114010;28;20047;-64
2022/12/26 04:47:35;;;;;;;38.13;20.33;;;9.10;99.90;;;;;;5095699;28;20119;-64
2022/12/26 04:50:11;;;;;;;34.60;21.30;;;9.10;99.90;;;;;;5113743;28;20059;-65
2022/12/26 04:55:24;;;;;;;35.25;21.08;;;9.20;99.90;;;;;;5113618;28;20090;-65
2022/12/26 04:57:49;;;;;;;33.70;21.60;;;9.20;99.90;;;;;;5113935;28;20096;-64
2022/12/26 05:00:15;;;;;;;36.25;21.90;;;9.20;99.90;;;;;;5113487;28;20040;-64
2022/12/26 05:11:09;;;;;;;37.75;22.23;;;9.00;99.90;;;;;;5113774;28;20426;-63
2022/12/26 05:13:35;;;;;;;33.00;21.17;;;9.00;99.90;;;;;;5113489;28;20165;-64
2022/12/26 05:29:42;;;;;;;31.52;21.90;;;9.10;99.90;;;;;;5117153;28;20383;-63
2022/12/26 05:32:08;;;;;;;31.15;21.65;;;9.10;99.90;;;;;;5117227;28;20089;-63
2022/12/26 05:34:33;;;;;;;33.55;21.65;;;9.10;99.90;;;;;;5117099;28;20095;-63
2022/12/26 05:36:59;;;;;;;32.15;20.95;;;9.00;99.90;;;;;;5117170;28;20040;-63
2022/12/26 05:39:25;;;;;;;30.67;21.02;;;8.90;99.90;;;;;;5098882;28;20042;-63
2022/12/26 05:41:50;;;;;;;28.80;20.73;;;8.90;99.90;;;;;;5116970;28;20423;-64
2022/12/26 05:44:16;;;;;;;32.53;20.10;;;9.10;99.90;;;;;;5116994;28;20405;-63
2022/12/26 05:46:42;;;;;;;32.63;21.00;;;9.00;99.90;;;;;;5116783;28;20505;-63
2022/12/26 05:49:08;;;;;;;28.58;20.42;;;9.00;99.90;;;;;;5117013;28;20044;-64
2022/12/26 05:51:35;;;;;;;28.08;20.45;;;9.00;99.90;;;;;;5097738;28;20051;-64
2022/12/26 05:54:01;;;;;;;28.38;20.95;;;8.90;99.90;;;;;;5116840;28;20110;-64
2022/12/26 05:56:26;;;;;;;29.95;21.95;;;9.00;99.90;;;;;;5116205;28;20480;-63
2022/12/26 05:58:54;;;;;;;30.92;20.52;;;8.90;99.90;;;;;;5116601;28;20032;-64
2022/12/26 06:01:20;;;;;;;28.05;20.60;;;8.90;99.90;;;;;;5116608;28;20046;-63
2022/12/26 06:03:51;;;;;;;32.63;20.85;;;9.20;99.90;;;;;;5116595;28;20374;-65
2022/12/26 06:06:18;;;;;;;32.15;21.95;;;9.00;99.90;;;;;;5116574;28;20039;-64
2022/12/26 06:08:47;;;;;;;33.95;21.67;;;8.90;99.90;;;;;;5116407;28;20380;-63
2022/12/26 06:11:14;;;;;;;32.45;22.00;;;9.00;99.90;;;;;;5116069;28;20427;-64
2022/12/26 06:13:40;;;;;;;32.42;22.83;;;9.00;99.90;;;;;;5116425;28;20043;-63
2022/12/26 06:16:08;;;;;;;32.42;21.33;;;8.90;99.90;;;;;;5116019;28;20039;-62
2022/12/26 06:18:33;;;;;;;29.85;22.33;;;9.00;99.90;;;;;;5115817;28;20051;-63
2022/12/26 06:21:03;;;;;;;31.63;21.73;;;8.90;99.90;;;;;;5116217;28;20092;-63
2022/12/26 06:23:29;;;;;;;33.33;20.90;;;8.90;99.90;;;;;;5116026;28;20046;-63
2022/12/26 06:25:55;;;;;;;30.05;21.30;;;9.00;99.90;;;;;;5116124;28;20110;-63
2022/12/26 06:28:22;;;;;;;29.92;20.60;;;8.90;99.90;;;;;;5116067;28;20039;-63
2022/12/26 06:30:48;;;;;;;28.08;20.48;;;9.00;99.90;;;;;;5115668;28;20044;-63
2022/12/26 06:33:14;;;;;;;24.70;20.25;;;8.90;99.90;;;;;;5115797;28;20067;-64
2022/12/26 06:35:40;;;;;;;25.13;19.38;;;9.00;99.90;;;;;;5116049;28;20450;-63
2022/12/26 06:38:05;;;;;;;23.85;19.40;;;8.90;99.90;;;;;;5080166;28;20036;-63
2022/12/26 06:40:31;;;;;;;22.52;18.05;;;9.10;99.90;;;;;;5116039;28;20390;-62
2022/12/26 06:42:56;;;;;;;24.33;18.60;;;9.10;99.90;;;;;;5115496;28;20397;-62
2022/12/26 06:45:22;;;;;;;23.50;18.35;;;9.10;99.90;;;;;;5115713;28;20043;-63
2022/12/26 06:47:48;;;;;;;25.58;18.05;;;9.00;99.90;;;;;;5097248;28;20042;-63
2022/12/26 06:50:13;;;;;;;25.60;18.55;;;9.00;99.90;;;;;;5115753;28;20038;-64
2022/12/26 06:52:39;;;;;;;21.90;16.70;;;9.00;99.90;;;;;;5115378;28;20031;-63
2022/12/26 06:55:05;;;;;;;24.98;16.50;;;9.00;99.90;;;;;;5097102;28;20071;-63
2022/12/26 06:57:30;;;;;;;21.15;16.65;;;9.00;99.90;;;;;;5115563;28;20114;-63
2022/12/26 06:59:56;;;;;;;23.58;17.27;;;9.10;99.90;;;;;;5115536;28;20035;-63
2022/12/26 07:02:22;;;;;;;23.60;15.23;;;9.10;99.90;;;;;;5115093;28;20043;-63
2022/12/26 07:04:47;;;;;;;23.13;15.02;;;9.00;99.90;;;;;;5115660;28;20050;-63
2022/12/26 07:07:13;;;;;;;22.30;14.93;;;9.00;99.90;;;;;;5115329;28;20055;-63
2022/12/26 07:09:38;;;;;;;20.48;15.15;;;9.10;99.90;;;;;;5115158;28;20089;-64
2022/12/26 07:12:04;;;;;;;26.48;15.32;;;9.20;99.90;;;;;;5115408;28;20031;-64
2022/12/26 07:14:30;;;;;;;20.30;15.30;;;9.00;99.90;;;;;;5115143;28;20470;-64
2022/12/26 07:16:55;;;;;;;20.30;15.07;;;9.10;99.90;;;;;;5115090;28;20039;-64
2022/12/26 07:19:21;;;;;;;20.00;14.93;;;9.00;99.90;;;;;;5096460;28;20058;-62
2022/12/26 07:21:47;;;;;;;20.58;14.23;;;9.20;99.90;;;;;;5115125;28;20031;-63
2022/12/26 07:24:15;;;;;;;20.98;14.05;;;9.20;99.90;;;;;;5115167;28;20165;-62
2022/12/26 07:26:41;;;;;;;20.20;13.27;;;9.20;99.90;;;;;;5114771;28;20187;-64
2022/12/26 07:29:09;;;;;;;20.40;13.70;;;9.20;99.90;;;;;;5114895;28;20340;-63
2022/12/26 07:31:35;;;;;;;17.08;12.93;;;9.20;99.90;;;;;;5114854;28;20042;-64
2022/12/26 07:34:00;;;;;;;18.58;12.43;;;9.20;99.90;;;;;;5096265;28;20043;-63
2022/12/26 07:36:26;;;;;;;20.65;11.63;;;9.10;99.90;;;;;;5095944;28;20054;-62
2022/12/26 07:38:52;;;;;;;15.38;11.40;;;9.20;99.90;;;;;;5114681;28;20229;-63
2022/12/26 07:44:01;;;;;;;16.30;11.20;;;9.30;99.90;;;;;;5114638;28;20041;-63
2022/12/26 07:46:27;;;;;;;17.33;11.52;;;9.20;99.90;;;;;;5096410;28;20040;-63
2022/12/26 07:48:52;;;;;;;16.98;11.25;;;9.10;99.90;;;;;;5114500;28;20043;-62
2022/12/26 07:51:18;;;;;;;16.02;10.85;;;9.10;99.90;;;;;;5113633;28;20082;-63
2022/12/26 07:53:44;;;;;;;17.00;11.00;;;9.00;99.90;;;;;;5114504;28;20035;-63
2022/12/26 07:56:09;;;;;;;16.23;10.32;;;9.10;99.90;;;;;;5114374;28;20047;-63
2022/12/26 07:58:35;;;;;;;19.92;10.35;;;9.20;99.90;;;;;;5114399;28;20118;-62
2022/12/26 08:01:02;;;;;;;15.65;10.13;;;9.20;99.90;;;;;;5096004;28;20379;-64
2022/12/26 08:03:27;;;;;;;15.05;9.77;;;9.10;99.90;;;;;;5114499;28;20036;-63
2022/12/26 08:05:53;;;;;;;15.52;10.02;;;9.20;99.90;;;;;;5114024;28;20085;-63
2022/12/26 08:08:19;;;;;;;15.85;9.68;;;9.20;99.90;;;;;;5114429;28;20067;-64
2022/12/26 08:10:44;;;;;;;15.95;9.57;;;9.10;99.90;;;;;;5095973;28;20123;-64
2022/12/26 08:13:10;;;;;;;16.05;9.88;;;9.10;99.90;;;;;;5114351;28;20370;-64
2022/12/26 08:15:39;;;;;;;12.52;8.70;;;9.10;99.90;;;;;;5114166;28;20036;-62
2022/12/26 08:18:05;;;;;;;12.70;8.65;;;9.10;99.90;;;;;;5113891;28;20127;-63
2022/12/26 08:20:31;;;;;;;14.35;9.70;;;9.10;99.90;;;;;;5114021;28;20075;-64
2022/12/26 08:22:57;;;;;;;10.85;8.23;;;9.20;99.90;;;;;;5114263;28;20028;-63
2022/12/26 08:25:23;;;;;;;13.75;8.38;;;9.30;99.90;;;;;;5114073;28;20461;-63
2022/12/26 08:27:48;;;;;;;11.48;7.82;;;9.30;99.90;;;;;;5114249;28;20035;-62
2022/12/26 08:30:14;;;;;;;14.25;8.23;;;9.30;99.90;;;;;;5114037;28;20036;-63
2022/12/26 08:32:40;;;;;;;10.52;7.63;;;9.30;99.90;;;;;;5113887;28;20036;-62
2022/12/26 08:35:06;;;;;;;15.48;8.48;;;9.30;99.90;;;;;;5113948;28;20149;-63
2022/12/26 08:37:32;;;;;;;14.27;7.82;;;9.30;99.90;;;;;;5113914;28;20032;-63
2022/12/26 08:39:57;;;;;;;8.88;7.05;;;9.30;99.90;;;;;;5107732;28;20036;-63
2022/12/26 08:42:23;;;;;;;11.38;7.20;;;9.20;99.90;;;;;;5089675;28;20362;-64
2022/12/26 08:44:49;;;;;;;9.90;6.95;;;9.30;99.90;;;;;;5095091;28;20036;-65
2022/12/26 08:47:15;;;;;;;19.92;7.70;;;9.30;99.90;;;;;;5094848;28;20047;-63
2022/12/26 08:49:40;;;;;;;18.73;7.60;;;9.30;99.90;;;;;;5113832;28;20035;-63
2022/12/26 08:52:06;;;;;;;13.85;7.00;;;9.30;99.90;;;;;;5113810;28;20036;-63
2022/12/26 08:54:32;;;;;;;15.27;7.75;;;9.20;99.90;;;;;;5113859;28;20071;-64
2022/12/26 08:56:58;;;;;;;13.80;7.55;;;9.20;99.90;;;;;;5113682;28;20071;-63
2022/12/26 08:59:24;;;;;;;15.57;8.18;;;9.20;99.90;;;;;;5113763;28;20085;-64
2022/12/26 09:01:50;;;;;;;11.38;8.05;;;9.20;99.90;;;;;;5115870;28;20036;-62
2022/12/26 09:04:15;;;;;;;11.13;7.63;;;9.30;99.90;;;;;;5117816;28;20101;-65
2022/12/26 09:06:41;;;;;;;17.30;7.90;;;9.40;99.90;;;;;;5117607;28;20134;-64
2022/12/26 09:09:10;;;;;;;13.18;8.38;;;9.30;99.90;;;;;;5117306;28;20464;-64
2022/12/26 09:11:36;;;;;;;12.45;8.18;;;9.20;99.90;;;;;;5117426;28;20039;-63
2022/12/26 09:14:03;;;;;;;11.02;8.38;;;9.30;99.90;;;;;;5117416;28;20032;-63
2022/12/26 09:16:35;;;;;;;14.43;7.72;;;9.40;99.90;;;;;;5117028;28;20036;-64
2022/12/26 09:19:03;;;;;;;14.63;9.35;;;9.10;99.90;;;;;;5116964;28;20052;-63
2022/12/26 09:21:29;;;;;;;11.35;8.13;;;9.20;99.90;;;;;;5117197;28;20173;-64
2022/12/26 09:24:00;;;;;;;18.70;8.38;;;9.20;99.90;;;;;;5117190;28;20381;-64
2022/12/26 09:26:26;;;;;;;15.30;8.40;;;9.20;99.90;;;;;;5117103;28;20039;-63
2022/12/26 09:28:52;;;;;;;17.23;8.13;;;9.20;99.90;;;;;;5116997;28;20032;-63
2022/12/26 09:31:21;;;;;;;10.93;8.88;;;9.00;99.90;;;;;;5116928;28;20093;-62
2022/12/26 09:33:46;;;;;;;11.05;8.20;;;9.20;99.90;;;;;;5116540;28;20543;-61
2022/12/26 09:36:15;;;;;;;13.88;7.60;;;9.10;99.90;;;;;;5116693;28;20048;-62
2022/12/26 09:38:41;;;;;;;9.15;5.25;;;9.00;99.90;;;;;;5116711;28;20036;-61
2022/12/26 09:41:19;;;;;;;10.40;4.90;;;9.10;99.90;;;;;;5116558;28;20046;-62
2022/12/26 09:44:01;;;;;;;10.50;4.25;;;9.20;99.90;;;;;;5116754;28;20035;-62
2022/12/26 09:46:32;;;;;;;12.25;4.18;;;9.20;99.90;;;;;;5098138;28;20039;-61
2022/12/26 09:49:12;;;;;;;11.43;4.03;;;9.20;99.90;;;;;;5116514;28;20367;-61
2022/12/26 09:51:42;;;;;;;16.63;3.60;;;9.00;99.90;;;;;;5116438;28;20039;-62
2022/12/26 09:54:17;;;;;;;12.95;3.55;;;8.80;99.90;;;;;;5116211;28;20527;-62
2022/12/26 09:56:45;;;;;;;15.80;2.38;;;8.60;99.90;;;;;;5116133;28;20127;-62
2022/12/26 09:59:16;;;;;;;13.73;2.45;;;8.40;99.90;;;;;;5116234;28;20032;-62
2022/12/26 10:01:42;;;;;;;6.57;2.25;;;8.30;99.90;;;;;;5115892;28;20082;-62
2022/12/26 10:04:27;;;;;;;16.75;2.78;;;8.20;99.90;;;;;;5115928;28;20059;-61
2022/12/26 10:07:13;;;;;;;12.68;2.55;;;8.00;99.90;;;;;;5116106;28;20093;-61
2022/12/26 10:10:18;;;;;;;13.82;2.35;;;7.90;99.90;;;;;;5115913;28;20046;-61
2022/12/26 10:12:59;;;;;;;12.40;2.70;;;8.00;99.90;;;;;;5012474;28;20053;-62
2022/12/26 10:15:51;;;;;;;13.75;2.00;;;8.00;99.90;;;;;;5012982;28;20049;-62
2022/12/26 10:18:45;;;;;;;13.55;2.58;;;7.90;99.90;;;;;;5012629;28;20046;-63
2022/12/26 10:21:19;;;;;;;10.55;2.58;;;7.80;99.90;;;;;;5005104;28;20057;-62
2022/12/26 10:23:50;;;;;;;13.40;2.60;;;7.70;99.90;;;;;;5012872;28;20479;-62
2022/12/26 10:26:21;;;;;;;20.17;3.13;;;7.80;99.90;;;;;;5012961;28;20074;-61
2022/12/26 10:29:00;;;;;;;15.82;2.60;;;7.90;99.90;;;;;;4996394;28;20057;-61
2022/12/26 10:31:36;;;;;;;13.67;2.97;;;7.90;99.90;;;;;;4996566;28;20042;-62
2022/12/26 10:34:19;;;;;;;11.27;1.98;;;7.90;99.90;;;;;;5012623;28;20038;-61
2022/12/26 10:36:49;;;;;;;14.55;2.38;;;7.90;99.90;;;;;;4995388;28;20061;-61
2022/12/26 10:39:23;;;;;;;14.77;2.45;;;7.90;99.90;;;;;;5012673;28;20042;-62
2022/12/26 10:41:53;;;;;;;12.13;1.85;;;7.90;99.90;;;;;;5012595;28;20046;-61
2022/12/26 10:44:19;;;;;;;11.75;1.80;;;7.90;99.90;;;;;;5012500;28;20044;-61
2022/12/26 10:46:57;;;;;;;14.35;2.25;;;7.80;99.90;;;;;;5012443;28;20119;-61
2022/12/26 10:49:25;;;;;;;14.13;1.58;;;7.70;99.90;;;;;;5057762;28;20544;-61
2022/12/26 10:51:53;;;;;;;11.70;1.20;;;7.70;99.90;;;;;;5114698;28;20039;-62
2022/12/26 10:54:22;;;;;;;5.45;1.25;;;7.70;99.90;;;;;;5096207;28;20285;-62
2022/12/26 10:56:49;;;;;;;4.00;1.00;;;7.70;99.90;;;;;;5114681;28;20072;-61
2022/12/26 10:59:22;;;;;;;9.23;1.48;;;7.60;99.90;;;;;;5114537;28;20481;-61
2022/12/26 11:01:49;;;;;;;10.13;1.60;;;7.40;99.90;;;;;;5114648;28;20035;-62
2022/12/26 11:04:21;;;;;;;11.55;2.17;;;7.40;99.90;;;;;;5114711;28;20371;-61
2022/12/26 11:06:52;;;;;;;8.25;2.00;;;7.50;99.90;;;;;;5114582;28;20040;-60
2022/12/26 11:09:38;;;;;;;6.72;1.73;;;7.30;99.90;;;;;;5114592;28;20078;-62
2022/12/26 11:12:05;;;;;;;13.45;2.20;;;7.40;99.90;;;;;;5114518;28;20043;-62
2022/12/26 11:14:39;;;;;;;10.57;1.83;;;7.30;99.90;;;;;;5114604;28;20115;-61
2022/12/26 11:17:13;;;;;;;12.18;2.05;;;7.40;99.90;;;;;;5114341;28;20058;-61
2022/12/26 11:19:43;;;;;;;14.52;1.73;;;7.50;99.90;;;;;;5114187;28;20496;-62
2022/12/26 11:22:29;;;;;;;10.98;1.40;;;7.40;99.90;;;;;;5096241;28;20059;-61
2022/12/26 11:25:22;;;;;;;8.02;1.92;;;7.40;99.90;;;;;;5112318;28;20054;-61
2022/12/26 11:28:18;;;;;;;7.85;1.20;;;7.40;99.90;;;;;;5113992;28;20045;-62
2022/12/26 11:30:47;;;;;;;7.75;1.42;;;7.40;99.90;;;;;;5113852;28;20031;-62
2022/12/26 11:33:23;;;;;;;7.28;1.30;;;7.40;99.90;;;;;;5113928;28;20046;-62
2022/12/26 11:36:06;;;;;;;8.30;1.50;;;7.40;99.90;;;;;;5113711;28;20127;-62
2022/12/26 11:38:43;;;;;;;5.38;1.23;;;7.50;99.90;;;;;;5113631;28;20118;-61
2022/12/26 11:41:32;;;;;;;13.13;1.75;;;7.50;99.90;;;;;;5095647;28;20390;-62
2022/12/26 11:44:04;;;;;;;11.10;1.45;;;7.50;99.90;;;;;;5113966;28;20036;-61
2022/12/26 11:46:38;;;;;;;13.38;2.75;;;7.40;99.90;;;;;;5113590;28;20096;-61
2022/12/26 11:49:06;;;;;;;10.32;1.90;;;7.40;99.90;;;;;;5113860;28;20074;-61
2022/12/26 11:51:41;;;;;;;7.28;2.20;;;7.40;99.90;;;;;;5113822;28;20048;-62
2022/12/26 11:54:30;;;;;;;6.00;1.70;;;7.40;99.90;;;;;;5113752;28;20047;-61
2022/12/26 11:57:13;;;;;;;15.70;2.35;;;7.40;99.90;;;;;;5113654;28;20092;-60
2022/12/26 11:59:39;;;;;;;14.10;2.00;;;7.40;99.90;;;;;;5113623;28;20122;-61
2022/12/26 12:02:34;;;;;;;9.10;1.67;;;7.40;99.90;;;;;;5113673;28;20075;-61
2022/12/26 12:05:11;;;;;;;12.98;1.92;;;7.40;99.90;;;;;;5011086;28;20057;-60
2022/12/26 12:08:01;;;;;;;9.25;2.15;;;7.40;99.90;;;;;;5011005;28;20080;-61
2022/12/26 12:10:55;;;;;;;20.83;2.55;;;7.50;99.90;;;;;;5010796;28;20408;-61
2022/12/26 12:13:32;;;;;;;17.27;2.72;;;7.40;99.90;;;;;;4994050;28;20042;-60
2022/12/26 12:16:00;;;;;;;14.07;1.70;;;7.50;99.90;;;;;;5010402;28;20053;-61
2022/12/26 12:18:43;;;;;;;9.15;2.30;;;7.40;99.90;;;;;;5010339;28;20137;-61
2022/12/26 12:21:34;;;;;;;13.52;2.30;;;7.50;99.90;;;;;;5010537;28;20088;-60
2022/12/26 12:24:21;;;;;;;12.02;2.28;;;7.50;99.90;;;;;;5010420;28;20076;-61
2022/12/26 12:27:11;;;;;;;11.15;1.70;;;7.50;99.90;;;;;;5010629;28;20041;-61
2022/12/26 12:30:15;;;;;;;16.90;2.80;;;7.50;99.90;;;;;;5010607;28;20053;-61
2022/12/26 12:33:12;;;;;;;10.65;2.55;;;7.50;99.90;;;;;;5010086;28;20100;-62
2022/12/26 12:35:52;;;;;;;13.52;2.28;;;7.60;99.90;;;;;;5010465;28;20145;-61
2022/12/26 12:38:28;;;;;;;17.58;2.63;;;7.60;99.90;;;;;;4998179;28;20046;-60
2022/12/26 12:41:06;;;;;;;13.93;2.97;;;7.60;99.90;;;;;;5044646;28;20055;-60
2022/12/26 12:43:44;;;;;;;16.38;1.88;;;7.60;99.90;;;;;;5117583;28;20047;-62
2022/12/26 12:46:27;;;;;;;17.35;2.40;;;7.60;99.90;;;;;;5116736;28;20047;-61
2022/12/26 12:49:19;;;;;;;15.55;2.55;;;7.60;99.90;;;;;;5117168;28;20051;-62
2022/12/26 12:52:02;;;;;;;16.50;2.67;;;7.60;99.90;;;;;;5117177;28;20119;-60
2022/12/26 12:54:28;;;;;;;13.32;2.22;;;7.60;99.90;;;;;;5117021;28;20423;-62
2022/12/26 12:57:15;;;;;;;15.45;2.45;;;7.60;99.90;;;;;;5116615;28;20096;-60
2022/12/26 12:59:48;;;;;;;8.73;2.03;;;7.50;99.90;;;;;;5116593;28;20496;-60
2022/12/26 13:02:32;;;;;;;18.98;2.80;;;7.40;99.90;;;;;;5116734;28;20075;-61
2022/12/26 13:05:35;;;;;;;15.13;2.58;;;7.40;99.90;;;;;;5117000;28;20042;-61
2022/12/26 13:08:06;;;;;;;13.60;2.35;;;7.40;99.90;;;;;;5116892;28;20045;-61
2022/12/26 13:10:37;;;;;;;14.95;2.15;;;7.30;99.90;;;;;;5116584;28;20043;-60
2022/12/26 13:13:22;;;;;;;15.55;2.30;;;7.30;99.90;;;;;;5116808;28;20054;-61
2022/12/26 13:15:53;;;;;;;17.50;2.58;;;7.30;99.90;;;;;;5116090;28;20039;-60
2022/12/26 13:18:28;;;;;;;7.82;1.73;;;7.30;99.90;;;;;;5116560;28;20058;-61
2022/12/26 13:20:59;;;;;;;17.52;2.60;;;7.30;99.90;;;;;;5116331;28;20039;-61
2022/12/26 13:26:25;;;;;;;18.27;2.78;;;7.30;99.90;;;;;;5116569;28;20048;-60
2022/12/26 13:29:01;;;;;;;12.77;2.00;;;7.30;99.90;;;;;;5116067;28;20085;-60
2022/12/26 13:31:37;;;;;;;15.25;1.92;;;7.30;99.90;;;;;;5116596;28;20071;-61
2022/12/26 13:34:06;;;;;;;10.50;2.13;;;7.30;99.90;;;;;;5115933;28;20032;-60
2022/12/26 13:36:34;;;;;;;;;;;7.40;99.90;;;;;;5116822;28;20429;-61
2022/12/26 13:39:01;;;;;;;16.83;2.83;;;7.40;99.90;;;;;;5116393;28;20002;-60
2022/12/26 13:44:18;;;;;;;15.95;2.40;;;7.40;99.90;;;;;;5116347;28;20047;-60
2022/12/26 13:46:47;;;;;;;12.40;2.92;;;7.30;99.90;;;;;;5116267;28;20099;-62
2022/12/26 13:49:35;;;;;;;10.07;2.15;;;7.30;99.90;;;;;;5114739;28;20127;-62
2022/12/26 13:52:09;;;;;;;12.68;2.45;;;7.30;99.90;;;;;;5116037;28;20039;-60
2022/12/26 13:54:57;;;;;;;11.55;2.42;;;7.30;99.90;;;;;;5116019;28;20042;-60
2022/12/26 13:57:35;;;;;;;12.23;2.33;;;7.30;99.90;;;;;;5115614;28;20561;-60
2022/12/26 14:00:12;;;;;;;12.73;3.03;;;7.30;99.90;;;;;;5115880;28;20040;-61
2022/12/26 14:02:40;;;;;;;11.93;2.85;;;7.30;99.90;;;;;;5115985;28;20039;-61
2022/12/26 14:05:30;;;;;;;9.23;1.67;;;7.30;99.90;;;;;;5115515;28;20516;-60
2022/12/26 14:08:36;;;;;;;11.77;2.22;;;7.30;99.90;;;;;;5115767;28;20035;-60
2022/12/26 14:11:19;;;;;;;19.60;2.13;;;7.30;99.90;;;;;;5110413;28;20093;-61
2022/12/26 14:13:51;;;;;;;14.85;2.95;;;7.30;99.90;;;;;;5115571;28;20031;-61
2022/12/26 14:16:38;;;;;;;17.55;3.78;;;7.30;99.90;;;;;;5115224;28;20043;-61
2022/12/26 14:19:03;;;;;;;13.68;2.80;;;7.30;99.90;;;;;;5115175;28;20048;-61
2022/12/26 14:21:35;;;;;;;13.70;2.60;;;7.30;99.90;;;;;;5115106;28;20504;-61
2022/12/26 14:24:18;;;;;;;15.27;3.08;;;7.30;99.90;;;;;;5115203;28;20469;-60
2022/12/26 14:27:08;;;;;;;12.77;2.30;;;7.30;99.90;;;;;;5115191;28;20036;-61
2022/12/26 14:29:47;;;;;;;19.85;3.00;;;7.20;99.90;;;;;;5115289;28;20431;-61
2022/12/26 14:32:45;;;;;;;8.85;1.80;;;7.10;99.90;;;;;;5115303;28;20370;-60
2022/12/26 14:35:39;;;;;;;14.00;2.35;;;7.10;99.90;;;;;;5115112;28;20067;-61
2022/12/26 14:38:11;;;;;;;12.07;2.42;;;7.00;99.90;;;;;;5115523;28;20040;-61
2022/12/26 14:40:37;;;;;;;14.10;2.78;;;6.90;99.90;;;;;;5114894;28;20031;-60
2022/12/26 14:43:16;;;;;;;17.80;2.85;;;6.80;99.90;;;;;;5115111;28;20101;-61
2022/12/26 14:45:49;;;;;;;16.63;2.70;;;6.70;99.90;;;;;;5115069;28;20112;-60
2022/12/26 14:48:15;;;;;;;20.85;3.80;;;6.60;99.90;;;;;;5115121;28;20110;-60
2022/12/26 14:50:53;;;;;;;11.45;2.13;;;6.60;99.90;;;;;;5114388;28;20119;-60
2022/12/26 14:53:22;;;;;;;11.93;2.83;;;6.60;99.90;;;;;;5114650;28;20046;-60
2022/12/26 14:55:52;;;;;;;20.83;2.97;;;6.50;99.90;;;;;;5096139;28;20122;-60
2022/12/26 14:58:30;;;;;;;14.60;3.70;;;6.50;99.90;;;;;;5114500;28;20078;-60
2022/12/26 15:01:16;;;;;;;16.50;2.35;;;6.40;99.90;;;;;;5114738;28;20067;-60
2022/12/26 15:04:19;;;;;;;15.68;3.05;;;6.40;99.90;;;;;;5096456;28;20077;-61
2022/12/26 15:06:48;;;;;;;12.27;2.63;;;6.40;99.90;;;;;;5114558;28;20054;-60
2022/12/26 15:09:32;;;;;;;18.77;3.15;;;6.40;99.90;;;;;;5114622;28;20047;-60
2022/12/26 15:12:35;;;;;;;22.75;2.85;;;6.30;99.90;;;;;;5114621;28;20044;-60
2022/12/26 15:15:09;;;;;;;11.57;2.33;;;6.30;99.90;;;;;;5114297;28;20039;-60
2022/12/26 15:17:34;;;;;;;12.05;3.05;;;6.20;99.90;;;;;;5114020;28;20092;-60